Time;durP1;ratioP1;P1;durP2;ratioP2;P2;SDS_P1;SDS_P2;PMS_P1;PMS_P2;Temp;Humidity;BMP_temperature;BMP_pressure;BME280_temperature;BME280_humidity;BME280_pressure;Samples;Min_cycle;Max_cycle;Signal;HPM_P1;HPM_P2
2023/12/29 00:02:04;;;;;;;1.57;1.30;;;;;;;6.25;100.00;100613.50;4999730;28;20285;-73
2023/12/29 00:04:30;;;;;;;1.57;1.43;;;;;;;6.29;100.00;100610.03;5002457;28;20978;-72
2023/12/29 00:06:56;;;;;;;1.40;1.10;;;;;;;6.33;100.00;100608.34;5001559;28;20193;-72
2023/12/29 00:09:23;;;;;;;1.10;1.00;;;;;;;6.33;100.00;100608.34;4997512;28;20658;-73
2023/12/29 00:11:50;;;;;;;3.07;1.50;;;;;;;6.35;100.00;100611.47;4999989;28;20564;-73
2023/12/29 00:14:17;;;;;;;1.63;1.37;;;;;;;6.35;100.00;100615.91;4999000;28;20201;-72
2023/12/29 00:16:44;;;;;;;3.20;1.77;;;;;;;6.36;100.00;100609.59;5001027;28;20197;-73
2023/12/29 00:19:12;;;;;;;1.60;1.13;;;;;;;6.41;100.00;100601.59;4998236;28;20413;-73
2023/12/29 00:21:38;;;;;;;1.30;1.10;;;;;;;6.43;100.00;100605.47;5002261;28;20216;-72
2023/12/29 00:24:05;;;;;;;1.73;1.27;;;;;;;6.45;100.00;100600.75;4996158;28;20218;-73
2023/12/29 00:26:31;;;;;;;1.50;1.20;;;;;;;6.46;100.00;100591.78;5000540;28;20571;-73
2023/12/29 00:28:59;;;;;;;1.20;1.10;;;;;;;6.48;100.00;100607.25;5003263;28;20707;-73
2023/12/29 00:31:25;;;;;;;1.40;1.17;;;;;;;6.46;100.00;100599.66;5004409;28;20231;-73
2023/12/29 00:33:53;;;;;;;2.10;1.20;;;;;;;6.45;100.00;100597.31;4998012;28;21013;-73
2023/12/29 00:36:21;;;;;;;2.07;1.10;;;;;;;6.45;100.00;100597.31;5001266;28;20262;-73
2023/12/29 00:38:47;;;;;;;2.13;1.00;;;;;;;6.43;100.00;100602.09;5000316;28;20205;-73
2023/12/29 00:41:14;;;;;;;3.33;1.33;;;;;;;6.40;100.00;100586.94;5001325;28;20224;-73
2023/12/29 00:43:41;;;;;;;2.03;1.07;;;;;;;6.37;100.00;100590.19;4991880;28;20711;-73
2023/12/29 00:46:09;;;;;;;5.33;1.33;;;;;;;6.34;100.00;100588.94;5002614;28;20204;-73
2023/12/29 00:48:35;;;;;;;1.83;1.00;;;;;;;6.34;100.00;100582.91;4998643;28;20201;-73
2023/12/29 00:51:02;;;;;;;1.67;1.20;;;;;;;6.31;100.00;100576.41;5001090;28;20216;-74
2023/12/29 00:53:31;;;;;;;1.70;1.20;;;;;;;6.30;100.00;100574.84;4993642;28;20731;-73
2023/12/29 00:55:58;;;;;;;2.63;1.23;;;;;;;6.28;100.00;100584.09;4996217;28;20217;-73
2023/12/29 00:58:24;;;;;;;1.90;1.20;;;;;;;6.24;100.00;100583.13;5001504;28;20205;-74
2023/12/29 01:00:51;;;;;;;1.93;1.40;;;;;;;6.22;100.00;100585.28;5004121;28;20236;-74
2023/12/29 01:03:17;;;;;;;1.17;1.00;;;;;;;6.19;100.00;100581.41;4998635;28;20246;-73
2023/12/29 01:05:44;;;;;;;1.90;1.57;;;;;;;6.17;100.00;100577.53;4996797;28;20216;-73
2023/12/29 01:08:10;;;;;;;2.40;1.30;;;;;;;6.13;100.00;100574.72;4997268;28;20436;-73
2023/12/29 01:10:37;;;;;;;3.47;1.30;;;;;;;6.11;100.00;100570.84;4999216;28;20220;-73
2023/12/29 01:13:04;;;;;;;1.33;1.23;;;;;;;6.08;100.00;100558.31;5002674;28;20203;-73
2023/12/29 01:15:31;;;;;;;2.70;1.47;;;;;;;6.05;100.00;100574.63;4998888;28;20201;-72
2023/12/29 01:17:57;;;;;;;2.60;1.40;;;;;;;6.01;100.00;100569.19;4998783;28;20200;-73
2023/12/29 01:20:23;;;;;;;1.60;1.50;;;;;;;5.98;100.00;100571.63;4995139;28;20225;-73
2023/12/29 01:22:50;;;;;;;2.00;1.20;;;;;;;5.95;100.00;100567.75;4996563;28;20292;-73
2023/12/29 01:25:16;;;;;;;2.03;1.53;;;;;;;5.91;100.00;100564.16;4999605;28;20217;-73
2023/12/29 01:27:44;;;;;;;1.60;1.40;;;;;;;5.88;100.00;100556.13;4999037;28;20236;-73
2023/12/29 01:30:11;;;;;;;1.47;1.37;;;;;;;5.86;100.00;100555.66;5000370;28;20767;-74
2023/12/29 01:32:37;;;;;;;1.37;1.27;;;;;;;5.85;100.00;100557.50;5004882;28;20208;-73
2023/12/29 01:35:05;;;;;;;1.60;1.27;;;;;;;5.85;100.00;100541.00;4999085;28;20711;-72
2023/12/29 01:37:32;;;;;;;2.67;1.30;;;;;;;5.83;100.00;100541.31;4994683;28;20662;-74
2023/12/29 01:39:59;;;;;;;3.20;1.60;;;;;;;5.84;100.00;100540.22;4994877;28;20231;-73
2023/12/29 01:42:25;;;;;;;1.60;1.40;;;;;;;5.85;100.00;100535.78;4998363;28;20211;-74
2023/12/29 01:44:54;;;;;;;1.63;1.53;;;;;;;5.88;100.00;100538.56;5001199;28;20221;-73
2023/12/29 01:47:22;;;;;;;2.73;1.50;;;;;;;5.91;100.00;100545.81;4997713;28;20211;-72
2023/12/29 01:49:50;;;;;;;1.80;1.20;;;;;;;5.91;100.00;100545.06;4999175;28;20229;-72
2023/12/29 01:52:18;;;;;;;1.90;1.60;;;;;;;5.93;100.00;100540.31;5000412;28;20778;-73
2023/12/29 01:54:47;;;;;;;2.10;1.50;;;;;;;5.97;100.00;100536.81;4993809;28;20198;-73
2023/12/29 01:57:13;;;;;;;1.97;1.30;;;;;;;6.02;100.00;100528.81;4995179;28;20258;-72
2023/12/29 01:59:41;;;;;;;1.87;1.30;;;;;;;6.04;100.00;100521.44;4998230;28;20314;-73
2023/12/29 02:02:09;;;;;;;5.73;1.90;;;;;;;6.05;100.00;100507.25;4998675;28;20572;-74
2023/12/29 02:04:36;;;;;;;1.80;1.60;;;;;;;6.09;100.00;100512.69;5004491;28;20211;-71
2023/12/29 02:07:04;;;;;;;2.47;1.50;;;;;;;6.10;100.00;100509.78;5000075;28;20205;-73
2023/12/29 02:09:33;;;;;;;2.17;1.60;;;;;;;6.10;100.00;100501.91;5000856;28;20201;-71
2023/12/29 02:12:00;;;;;;;1.20;1.10;;;;;;;6.09;100.00;100496.94;5006261;28;20239;-73
2023/12/29 02:14:26;;;;;;;1.63;1.30;;;;;;;6.10;100.00;100501.13;5005786;28;20284;-73
2023/12/29 02:17:02;;;;;;;2.00;1.27;;;;;;;6.10;100.00;100488.78;5001042;28;20205;-72
2023/12/29 02:19:40;;;;;;;2.03;1.60;;;;;;;6.12;100.00;100491.13;5000906;28;20801;-73
2023/12/29 02:22:07;;;;;;;2.53;1.40;;;;;;;6.13;100.00;100488.22;5007679;28;20208;-74
2023/12/29 02:24:36;;;;;;;1.73;1.60;;;;;;;6.15;100.00;100486.06;4994543;28;20237;-73
2023/12/29 02:27:12;;;;;;;1.80;1.50;;;;;;;6.15;100.00;100488.69;5002799;28;20193;-73
2023/12/29 02:29:41;;;;;;;2.20;1.20;;;;;;;6.16;100.00;100497.34;4997631;28;20983;-73
2023/12/29 02:32:12;;;;;;;1.43;1.30;;;;;;;6.16;100.00;100486.84;5001077;28;20208;-72
2023/12/29 02:34:42;;;;;;;2.77;1.43;;;;;;;6.14;100.00;100484.50;5000408;28;20197;-72
2023/12/29 02:37:10;;;;;;;1.50;1.40;;;;;;;6.14;100.00;100483.72;5018260;28;20205;-73
2023/12/29 02:39:36;;;;;;;1.67;1.50;;;;;;;6.13;100.00;100476.94;4999197;28;20221;-72
2023/12/29 02:42:05;;;;;;;3.10;1.50;;;;;;;6.10;100.00;100475.69;5013663;28;20211;-73
2023/12/29 02:44:31;;;;;;;3.33;1.40;;;;;;;6.08;100.00;100475.22;5001701;28;20580;-73
2023/12/29 02:46:59;;;;;;;1.67;1.20;;;;;;;6.08;100.00;100456.88;5002450;28;20695;-72
2023/12/29 02:49:26;;;;;;;1.60;1.50;;;;;;;6.07;100.00;100463.16;5000917;28;20602;-72
2023/12/29 02:51:53;;;;;;;2.77;1.50;;;;;;;6.06;100.00;100455.63;5004838;28;20205;-73
2023/12/29 02:54:19;;;;;;;1.37;1.27;;;;;;;6.02;100.00;100454.66;5003968;28;20211;-73
2023/12/29 02:56:46;;;;;;;2.40;1.40;;;;;;;6.01;100.00;100466.97;5003438;28;20216;-73
2023/12/29 02:59:14;;;;;;;2.87;1.60;;;;;;;5.99;100.00;100463.91;4996507;28;20578;-73
2023/12/29 03:01:41;;;;;;;1.43;1.20;;;;;;;5.98;100.00;100475.47;4996458;28;20278;-73
2023/12/29 03:04:07;;;;;;;1.60;1.50;;;;;;;5.95;100.00;100470.03;5001659;28;20213;-73
2023/12/29 03:06:34;;;;;;;2.03;1.33;;;;;;;5.97;100.00;100462.66;5000323;28;20286;-73
2023/12/29 03:09:00;;;;;;;1.50;1.30;;;;;;;5.98;100.00;100461.56;4997965;28;20219;-73
2023/12/29 03:11:27;;;;;;;1.53;1.30;;;;;;;6.01;100.00;100456.50;5000026;28;20221;-73
2023/12/29 03:13:53;;;;;;;3.03;1.53;;;;;;;6.04;100.00;100447.25;5000543;28;20252;-73
2023/12/29 03:16:21;;;;;;;1.50;1.13;;;;;;;6.07;100.00;100444.06;4998397;28;20197;-73
2023/12/29 03:18:47;;;;;;;2.40;1.33;;;;;;;6.09;100.00;100436.66;4997214;28;20680;-74
2023/12/29 03:21:13;;;;;;;1.43;1.23;;;;;;;6.11;100.00;100424.06;5001017;28;20237;-73
2023/12/29 03:23:40;;;;;;;1.53;1.27;;;;;;;6.12;100.00;100436.84;5005390;28;20200;-73
2023/12/29 03:26:06;;;;;;;2.93;1.20;;;;;;;6.14;100.00;100433.91;5001273;28;20220;-73
2023/12/29 03:28:33;;;;;;;1.20;1.10;;;;;;;6.13;100.00;100424.50;4998972;28;20267;-72
2023/12/29 03:30:59;;;;;;;1.73;1.30;;;;;;;6.12;100.00;100418.47;5001916;28;20225;-74
2023/12/29 03:33:27;;;;;;;2.10;1.33;;;;;;;6.15;100.00;100424.97;5000961;28;20213;-73
2023/12/29 03:35:53;;;;;;;1.53;1.20;;;;;;;6.16;100.00;100410.81;4999657;28;20201;-73
2023/12/29 03:38:19;;;;;;;1.63;1.53;;;;;;;6.16;100.00;100406.34;4999807;28;20232;-73
2023/12/29 03:40:48;;;;;;;1.40;1.30;;;;;;;6.18;100.00;100409.44;5002067;28;21361;-73
2023/12/29 03:43:14;;;;;;;1.43;1.33;;;;;;;6.21;100.00;100411.44;5006630;28;20205;-73
2023/12/29 03:45:40;;;;;;;2.73;1.30;;;;;;;6.22;100.00;100399.13;4999318;28;20224;-74
2023/12/29 03:48:09;;;;;;;1.87;1.20;;;;;;;6.21;100.00;100392.34;5002647;28;20691;-74
2023/12/29 03:50:37;;;;;;;1.13;1.00;;;;;;;6.23;100.00;100387.56;4999728;28;20577;-73
2023/12/29 03:53:03;;;;;;;1.20;1.10;;;;;;;6.26;100.00;100377.25;5003442;28;20619;-73
2023/12/29 03:55:30;;;;;;;2.53;1.13;;;;;;;6.30;100.00;100385.28;5001148;28;20197;-73
2023/12/29 03:57:56;;;;;;;1.03;0.90;;;;;;;6.33;100.00;100377.56;4995991;28;20205;-74
2023/12/29 04:00:23;;;;;;;1.77;1.33;;;;;;;6.35;100.00;100379.91;4997794;28;20651;-73
2023/12/29 04:02:50;;;;;;;1.30;1.00;;;;;;;6.39;100.00;100379.00;4999869;28;20196;-73
2023/12/29 04:05:16;;;;;;;1.37;1.00;;;;;;;6.42;100.00;100391.50;4996293;28;20212;-73
2023/12/29 04:07:44;;;;;;;1.30;1.20;;;;;;;6.40;100.00;100391.03;5002313;28;20211;-72
2023/12/29 04:10:11;;;;;;;1.97;1.00;;;;;;;6.41;100.00;100389.19;4995935;28;20621;-73
2023/12/29 04:12:37;;;;;;;1.60;1.30;;;;;;;6.40;100.00;100383.19;4994989;28;20205;-73
2023/12/29 04:15:04;;;;;;;1.80;1.00;;;;;;;6.41;100.00;100379.47;4999962;28;20208;-73
2023/12/29 04:17:30;;;;;;;1.10;1.00;;;;;;;6.42;100.00;100390.75;4999002;28;20207;-73
2023/12/29 04:19:57;;;;;;;1.10;1.00;;;;;;;6.41;100.00;100384.72;5001784;28;20232;-74
2023/12/29 04:22:23;;;;;;;1.00;0.90;;;;;;;6.40;100.00;100377.16;5000485;28;20201;-73
2023/12/29 04:24:51;;;;;;;1.00;0.87;;;;;;;6.38;100.00;100371.44;4998916;28;20733;-73
2023/12/29 04:27:18;;;;;;;2.20;0.90;;;;;;;6.36;100.00;100378.81;4998035;28;20679;-73
2023/12/29 04:29:45;;;;;;;1.00;1.00;;;;;;;6.35;100.00;100372.81;4999061;28;20224;-73
2023/12/29 04:32:11;;;;;;;1.10;0.90;;;;;;;6.35;100.00;100367.56;5000516;28;20200;-73
2023/12/29 04:34:38;;;;;;;0.80;0.80;;;;;;;6.33;100.00;100364.47;4993492;28;20193;-74
2023/12/29 04:37:04;;;;;;;1.30;1.00;;;;;;;6.33;100.00;100369.72;5002866;28;20212;-72
2023/12/29 04:39:31;;;;;;;1.40;1.00;;;;;;;6.35;100.00;100372.03;4998793;28;20231;-73
2023/12/29 04:41:59;;;;;;;1.07;0.90;;;;;;;6.32;100.00;100368.16;4999140;28;20200;-73
2023/12/29 04:44:25;;;;;;;1.47;1.30;;;;;;;6.33;100.00;100374.19;4997504;28;20205;-73
2023/12/29 04:46:51;;;;;;;2.00;0.87;;;;;;;6.34;100.00;100376.53;4999316;28;20201;-72
2023/12/29 04:49:18;;;;;;;0.80;0.80;;;;;;;6.35;100.00;100372.81;4999848;28;20786;-73
2023/12/29 04:51:44;;;;;;;0.93;0.93;;;;;;;6.36;100.00;100365.72;4996835;28;20228;-72
2023/12/29 04:54:11;;;;;;;1.20;1.10;;;;;;;6.38;100.00;100356.47;4996846;28;20267;-73
2023/12/29 04:56:37;;;;;;;1.67;1.00;;;;;;;6.39;100.00;100367.75;5001946;28;20767;-74
2023/12/29 04:59:04;;;;;;;1.10;0.97;;;;;;;6.42;100.00;100373.16;4994385;28;20205;-73
2023/12/29 05:01:31;;;;;;;0.77;0.77;;;;;;;6.40;100.00;100372.69;5002998;28;20233;-73
2023/12/29 05:03:57;;;;;;;0.70;0.70;;;;;;;6.41;100.00;100360.34;5000258;28;20205;-73
2023/12/29 05:06:23;;;;;;;1.00;0.80;;;;;;;6.40;100.00;100367.44;4998852;28;20794;-73
2023/12/29 05:08:50;;;;;;;0.80;0.80;;;;;;;6.39;100.00;100359.88;4995000;28;20204;-74
2023/12/29 05:11:16;;;;;;;0.83;0.70;;;;;;;6.40;100.00;100348.31;5000591;28;20224;-73
2023/12/29 05:13:42;;;;;;;1.00;0.73;;;;;;;6.39;100.00;100338.88;5000200;28;20211;-74
2023/12/29 05:16:10;;;;;;;0.70;0.70;;;;;;;6.41;100.00;100358.50;4998688;28;20235;-73
2023/12/29 05:18:36;;;;;;;0.80;0.80;;;;;;;6.43;100.00;100366.81;4992349;28;20213;-73
2023/12/29 05:21:03;;;;;;;4.77;1.00;;;;;;;6.44;100.00;100362.38;4999079;28;20715;-71
2023/12/29 05:23:29;;;;;;;1.00;0.90;;;;;;;6.47;100.00;100372.25;4998863;28;20196;-73
2023/12/29 05:25:55;;;;;;;0.70;0.70;;;;;;;6.46;100.00;100360.97;4997333;28;20227;-73
2023/12/29 05:28:22;;;;;;;1.67;0.73;;;;;;;6.46;100.00;100374.09;4998979;28;20204;-71
2023/12/29 05:30:48;;;;;;;0.70;0.70;;;;;;;6.53;100.00;100373.66;4994497;28;20695;-73
2023/12/29 05:33:16;;;;;;;0.77;0.73;;;;;;;6.57;100.00;100372.00;4996678;28;20212;-74
2023/12/29 05:35:42;;;;;;;0.80;0.80;;;;;;;6.57;100.00;100366.75;4998526;28;20200;-74
2023/12/29 05:38:08;;;;;;;0.60;0.60;;;;;;;6.59;100.00;100362.75;5002784;28;20196;-73
2023/12/29 05:40:35;;;;;;;0.90;0.70;;;;;;;6.64;100.00;100361.81;5001865;28;20232;-73
2023/12/29 05:43:01;;;;;;;0.60;0.60;;;;;;;6.66;100.00;100354.41;4999869;28;20201;-73
2023/12/29 05:45:27;;;;;;;0.73;0.73;;;;;;;6.69;100.00;100366.94;5005202;28;20583;-72
2023/12/29 05:47:54;;;;;;;0.90;0.70;;;;;;;6.71;100.00;100357.69;5002989;28;20212;-73
2023/12/29 05:50:21;;;;;;;0.90;0.80;;;;;;;6.73;100.00;100349.50;4999452;28;20220;-73
2023/12/29 05:52:51;;;;;;;1.23;0.60;;;;;;;6.74;100.00;100351.03;5002148;28;20571;-71
2023/12/29 05:55:18;;;;;;;1.17;1.00;;;;;;;6.73;100.00;100342.38;5004552;28;20587;-72
2023/12/29 05:57:44;;;;;;;0.83;0.83;;;;;;;6.73;100.00;100342.38;5006385;28;20205;-74
2023/12/29 06:00:14;;;;;;;2.10;0.80;;;;;;;6.72;100.00;100348.72;4998462;28;20232;-73
2023/12/29 06:02:40;;;;;;;0.83;0.80;;;;;;;6.71;100.00;100352.44;4999432;28;20198;-72
2023/12/29 06:05:07;;;;;;;0.80;0.80;;;;;;;6.72;100.00;100355.81;5005352;28;20227;-73
2023/12/29 06:07:35;;;;;;;1.07;0.97;;;;;;;6.73;100.00;100350.25;4999465;28;20215;-74
2023/12/29 06:10:02;;;;;;;0.77;0.77;;;;;;;6.72;100.00;100353.97;4999034;28;20241;-74
2023/12/29 06:12:28;;;;;;;0.80;0.80;;;;;;;6.74;100.00;100336.06;4995740;28;20215;-73
2023/12/29 06:14:54;;;;;;;1.13;0.80;;;;;;;6.78;100.00;100338.88;5000767;28;20687;-73
2023/12/29 06:17:21;;;;;;;1.10;1.00;;;;;;;6.79;100.00;100345.66;5000113;28;20615;-73
2023/12/29 06:19:47;;;;;;;1.10;0.80;;;;;;;6.85;100.00;100342.59;5004441;28;20228;-73
2023/12/29 06:22:14;;;;;;;1.53;1.00;;;;;;;6.90;100.00;100350.31;5002802;28;20205;-73
2023/12/29 06:24:41;;;;;;;1.10;1.00;;;;;;;6.94;100.00;100345.22;5006272;28;20200;-72
2023/12/29 06:27:09;;;;;;;0.80;0.80;;;;;;;6.94;100.00;100339.97;5002268;28;20215;-73
2023/12/29 06:29:35;;;;;;;1.27;1.10;;;;;;;6.96;100.00;100349.09;5002538;28;20201;-73
2023/12/29 06:32:02;;;;;;;1.00;0.90;;;;;;;6.98;100.00;100339.03;5003276;28;20197;-73
2023/12/29 06:34:28;;;;;;;0.90;0.90;;;;;;;6.99;100.00;100348.47;4999486;28;20200;-72
2023/12/29 06:36:54;;;;;;;1.00;0.90;;;;;;;7.02;100.00;100333.94;4999352;28;20204;-73
2023/12/29 06:39:21;;;;;;;1.10;1.00;;;;;;;7.05;100.00;100335.97;5000441;28;20201;-74
2023/12/29 06:41:48;;;;;;;1.33;0.80;;;;;;;7.06;100.00;100335.69;5001299;28;20219;-73
2023/12/29 06:44:14;;;;;;;1.00;0.90;;;;;;;7.12;100.00;100331.03;4997767;28;20201;-72
2023/12/29 06:46:41;;;;;;;1.30;1.20;;;;;;;7.14;100.00;100337.50;5001783;28;20212;-73
2023/12/29 06:49:08;;;;;;;0.90;0.80;;;;;;;7.19;100.00;100329.50;4996609;28;20208;-73
2023/12/29 06:51:35;;;;;;;0.93;0.93;;;;;;;7.21;100.00;100324.72;5001219;28;20221;-72
2023/12/29 06:54:02;;;;;;;1.00;0.90;;;;;;;7.23;100.00;100324.38;4999237;28;20197;-73
2023/12/29 06:56:28;;;;;;;0.97;0.97;;;;;;;7.26;100.00;100327.16;4998404;28;20231;-73
2023/12/29 06:58:56;;;;;;;2.20;1.00;;;;;;;7.27;100.00;100333.19;4998101;28;20550;-74
2023/12/29 07:01:22;;;;;;;0.90;0.90;;;;;;;7.27;100.00;100341.88;4998036;28;20748;-72
2023/12/29 07:03:48;;;;;;;1.10;1.00;;;;;;;7.25;100.00;100335.38;4996911;28;20204;-74
2023/12/29 07:06:15;;;;;;;1.33;1.20;;;;;;;7.23;100.00;100338.31;4997582;28;20232;-73
2023/12/29 07:08:41;;;;;;;1.00;0.83;;;;;;;7.22;100.00;100336.75;4999429;28;20227;-72
2023/12/29 07:11:10;;;;;;;3.30;1.60;;;;;;;7.18;100.00;100335.03;5000724;28;20740;-73
2023/12/29 07:13:37;;;;;;;5.70;1.53;;;;;;;7.15;100.00;100327.81;4995823;28;20202;-72
2023/12/29 07:16:05;;;;;;;1.30;1.20;;;;;;;7.12;100.00;100321.31;4997529;28;20402;-73
2023/12/29 07:18:31;;;;;;;1.50;1.40;;;;;;;7.11;100.00;100322.41;5000736;28;20192;-73
2023/12/29 07:20:57;;;;;;;2.93;1.80;;;;;;;7.12;100.00;100331.81;4999372;28;20339;-73
2023/12/29 07:23:24;;;;;;;2.20;2.00;;;;;;;7.11;100.00;100340.00;4998532;28;20204;-73
2023/12/29 07:25:50;;;;;;;2.50;2.00;;;;;;;7.13;100.00;100332.56;4993390;28;20209;-73
2023/12/29 07:28:16;;;;;;;3.10;1.67;;;;;;;7.13;100.00;100332.56;4998586;28;20207;-74
2023/12/29 07:30:43;;;;;;;7.57;3.10;;;;;;;7.15;100.00;100325.19;4998085;28;20218;-74
2023/12/29 07:33:11;;;;;;;9.57;3.83;;;;;;;7.21;100.00;100323.94;5001004;28;20216;-73
2023/12/29 07:35:37;;;;;;;5.93;2.43;;;;;;;7.24;100.00;100334.59;4998534;28;20203;-74
2023/12/29 07:38:04;;;;;;;5.13;1.90;;;;;;;7.29;100.00;100337.06;4995840;28;20216;-72
2023/12/29 07:40:30;;;;;;;2.83;1.43;;;;;;;7.35;100.00;100337.69;4996708;28;20301;-73
2023/12/29 07:42:57;;;;;;;2.13;1.50;;;;;;;7.38;100.00;100352.81;4996023;28;20212;-73
2023/12/29 07:45:23;;;;;;;4.57;2.27;;;;;;;7.38;100.00;100344.94;4999926;28;20196;-74
2023/12/29 07:47:50;;;;;;;2.30;1.70;;;;;;;7.38;100.00;100356.22;4998621;28;20248;-73
2023/12/29 07:50:18;;;;;;;1.23;1.13;;;;;;;7.41;100.00;100350.34;4996698;28;20600;-73
2023/12/29 07:52:44;;;;;;;1.83;1.27;;;;;;;7.43;100.00;100360.53;4999392;28;20205;-73
2023/12/29 07:55:11;;;;;;;1.20;1.10;;;;;;;7.43;100.00;100358.69;4993569;28;20204;-72
2023/12/29 07:57:37;;;;;;;1.10;1.00;;;;;;;7.46;100.00;100346.81;4996424;28;20538;-73
2023/12/29 08:00:06;;;;;;;2.43;1.40;;;;;;;7.48;99.87;100352.50;5001310;28;20821;-73
2023/12/29 08:02:38;;;;;;;2.00;1.40;;;;;;;7.47;100.00;100356.22;4998290;28;20213;-73
2023/12/29 08:05:05;;;;;;;2.57;1.30;;;;;;;7.47;98.96;100367.53;4997420;28;20201;-74
2023/12/29 08:07:32;;;;;;;1.60;1.50;;;;;;;7.46;100.00;100357.31;4995198;28;20684;-73
2023/12/29 08:10:00;;;;;;;6.53;3.57;;;;;;;7.48;99.20;100355.13;4993248;28;20223;-72
2023/12/29 08:12:28;;;;;;;3.10;2.47;;;;;;;7.51;100.00;100354.53;5013000;28;20210;-73
2023/12/29 08:14:54;;;;;;;3.23;2.40;;;;;;;7.51;100.00;100352.66;4999446;28;20204;-73
2023/12/29 08:17:20;;;;;;;1.97;1.50;;;;;;;7.55;99.34;100358.84;4995992;28;20677;-73
2023/12/29 08:19:47;;;;;;;2.57;1.40;;;;;;;7.56;100.00;100360.38;5002592;28;20258;-72
2023/12/29 08:22:13;;;;;;;1.70;1.50;;;;;;;7.59;100.00;100365.03;4999285;28;20202;-73
2023/12/29 08:24:43;;;;;;;1.50;1.40;;;;;;;7.61;100.00;100369.97;4994919;28;20229;-73
2023/12/29 08:27:10;;;;;;;1.33;1.20;;;;;;;7.66;100.00;100377.72;4998467;28;20601;-73
2023/12/29 08:29:37;;;;;;;2.77;1.30;;;;;;;7.71;99.41;100385.44;4994110;28;20720;-73
2023/12/29 08:32:04;;;;;;;1.77;1.30;;;;;;;7.75;99.23;100378.44;4996202;28;20551;-72
2023/12/29 08:34:30;;;;;;;3.67;1.50;;;;;;;7.79;97.43;100374.91;4995718;28;20201;-73
2023/12/29 08:36:57;;;;;;;1.00;1.00;;;;;;;7.81;100.00;100366.72;4993955;28;20649;-73
2023/12/29 08:39:24;;;;;;;1.20;1.10;;;;;;;7.86;97.21;100369.94;4996775;28;20208;-73
2023/12/29 08:41:51;;;;;;;4.10;1.60;;;;;;;7.89;97.57;100365.91;4998759;28;20198;-73
2023/12/29 08:44:18;;;;;;;2.83;2.23;;;;;;;7.92;98.30;100370.56;4992020;28;20202;-71
2023/12/29 08:46:44;;;;;;;1.50;1.40;;;;;;;7.94;98.35;100371.78;4998131;28;20246;-74
2023/12/29 08:49:11;;;;;;;2.00;1.40;;;;;;;7.97;97.81;100368.53;4994304;28;20198;-73
2023/12/29 08:51:37;;;;;;;1.97;1.50;;;;;;;8.03;97.58;100375.16;4994732;28;20232;-73
2023/12/29 08:54:04;;;;;;;2.23;1.40;;;;;;;8.07;97.41;100365.56;4995772;28;20729;-72
2023/12/29 08:56:30;;;;;;;3.13;1.30;;;;;;;8.11;96.76;100369.13;4996553;28;20216;-73
2023/12/29 08:58:58;;;;;;;1.60;1.20;;;;;;;8.14;95.97;100368.47;4995859;28;20203;-73
2023/12/29 09:01:24;;;;;;;2.50;1.10;;;;;;;8.18;99.09;100382.56;4993328;28;20237;-73
2023/12/29 09:03:50;;;;;;;1.53;1.43;;;;;;;8.23;96.40;100390.31;4990290;28;20206;-73
2023/12/29 09:06:17;;;;;;;1.93;1.20;;;;;;;8.28;98.51;100387.50;4995348;28;20223;-74
2023/12/29 09:08:43;;;;;;;1.20;1.10;;;;;;;8.31;97.30;100394.78;4999112;28;20225;-72
2023/12/29 09:11:09;;;;;;;1.57;1.40;;;;;;;8.36;95.55;100402.50;4997931;28;20239;-73
2023/12/29 09:13:36;;;;;;;1.40;1.30;;;;;;;8.38;97.81;100389.03;4995613;28;20200;-73
2023/12/29 09:16:04;;;;;;;1.20;1.10;;;;;;;8.42;96.67;100403.88;4997602;28;20195;-73
2023/12/29 09:18:30;;;;;;;1.10;1.00;;;;;;;8.50;95.40;100400.41;4992830;28;20203;-73
2023/12/29 09:20:56;;;;;;;3.20;1.23;;;;;;;8.50;94.43;100400.41;4997288;28;21597;-74
2023/12/29 09:23:23;;;;;;;1.53;1.40;;;;;;;8.52;96.14;100406.16;4996975;28;20200;-73
2023/12/29 09:25:49;;;;;;;1.60;1.17;;;;;;;8.57;97.84;100405.19;4996142;28;20211;-73
2023/12/29 09:28:16;;;;;;;1.60;1.47;;;;;;;8.60;96.02;100405.34;4994049;28;20204;-74
2023/12/29 09:30:42;;;;;;;1.40;1.20;;;;;;;8.63;98.00;100402.09;4992681;28;20223;-72
2023/12/29 09:33:12;;;;;;;1.60;1.10;;;;;;;8.68;95.99;100401.13;4999084;28;20195;-72
2023/12/29 09:35:38;;;;;;;1.27;1.17;;;;;;;8.73;94.28;100399.09;4991735;28;20286;-73
2023/12/29 09:38:05;;;;;;;3.50;1.60;;;;;;;8.77;97.01;100391.34;4988509;28;20211;-73
2023/12/29 09:40:32;;;;;;;1.90;1.30;;;;;;;8.83;93.40;100396.09;4994267;28;20224;-73
2023/12/29 09:42:59;;;;;;;2.67;1.57;;;;;;;8.88;95.96;100398.56;4994344;28;20290;-73
2023/12/29 09:45:26;;;;;;;1.67;1.43;;;;;;;8.97;93.04;100399.28;4992423;28;20204;-73
2023/12/29 09:47:54;;;;;;;3.20;1.40;;;;;;;9.06;94.22;100396.59;4998538;28;20220;-73
2023/12/29 09:50:23;;;;;;;1.40;1.30;;;;;;;9.13;95.85;100402.91;4997150;28;20223;-73
2023/12/29 09:52:50;;;;;;;1.37;1.27;;;;;;;9.23;92.62;100407.81;4993985;28;20739;-73
2023/12/29 09:55:17;;;;;;;2.33;1.23;;;;;;;9.29;93.59;100408.38;4992333;28;20193;-73
2023/12/29 09:57:44;;;;;;;1.30;1.20;;;;;;;9.35;93.13;100404.47;4992672;28;20196;-74
2023/12/29 10:00:12;;;;;;;4.03;1.20;;;;;;;9.39;93.55;100408.00;4995208;28;20222;-73
2023/12/29 10:02:39;;;;;;;1.33;1.10;;;;;;;9.44;94.01;100400.69;4991034;28;20215;-73
2023/12/29 10:05:06;;;;;;;3.17;1.50;;;;;;;9.49;94.46;100402.34;4989456;28;20211;-73
2023/12/29 10:07:37;;;;;;;3.27;1.20;;;;;;;9.54;92.24;100396.88;4993244;28;20219;-73
2023/12/29 10:10:06;;;;;;;2.53;1.77;;;;;;;9.59;91.59;100388.78;4998793;28;20217;-72
2023/12/29 10:12:33;;;;;;;2.03;1.10;;;;;;;9.59;93.31;100378.22;5005490;28;20612;-74
2023/12/29 10:15:08;;;;;;;1.27;1.17;;;;;;;9.60;92.17;100388.47;4993388;28;20201;-74
2023/12/29 10:17:44;;;;;;;2.10;1.30;;;;;;;9.62;92.55;100404.72;4998443;28;20205;-73
2023/12/29 10:20:21;;;;;;;2.07;1.20;;;;;;;9.63;93.42;100397.59;4995449;28;20228;-74
2023/12/29 10:22:55;;;;;;;3.97;1.40;;;;;;;9.66;92.24;100386.38;5001320;28;20655;-72
2023/12/29 10:25:24;;;;;;;1.37;1.27;;;;;;;9.69;93.03;100383.88;5003160;28;20201;-73
2023/12/29 10:27:51;;;;;;;2.03;1.23;;;;;;;9.72;92.22;100385.88;5005600;28;20234;-73
2023/12/29 10:30:18;;;;;;;3.10;1.37;;;;;;;9.74;93.55;100396.09;5003891;28;20220;-72
2023/12/29 10:32:49;;;;;;;1.20;1.10;;;;;;;9.77;91.33;100395.44;5001444;28;20212;-73
2023/12/29 10:35:16;;;;;;;1.20;1.10;;;;;;;9.82;93.26;100403.94;4995576;28;20201;-73
2023/12/29 10:37:42;;;;;;;1.33;1.10;;;;;;;9.86;93.47;100390.84;5001717;28;20223;-73
2023/12/29 10:40:18;;;;;;;1.77;1.50;;;;;;;9.91;94.76;100390.66;5004830;28;20227;-74
2023/12/29 10:42:52;;;;;;;2.77;1.40;;;;;;;9.94;92.10;100382.09;4999855;28;20238;-74
2023/12/29 10:45:19;;;;;;;3.03;1.60;;;;;;;9.99;94.35;100374.00;4995158;28;20228;-73
2023/12/29 10:47:45;;;;;;;3.23;1.60;;;;;;;10.01;92.09;100379.69;5000842;28;20213;-73
2023/12/29 10:50:12;;;;;;;2.77;1.30;;;;;;;10.01;93.12;100372.56;4997728;28;20235;-73
2023/12/29 10:52:40;;;;;;;2.27;1.30;;;;;;;10.00;94.94;100371.00;4991368;28;20216;-73
2023/12/29 10:55:09;;;;;;;1.83;1.50;;;;;;;10.00;94.79;100367.63;4991759;28;20209;-74
2023/12/29 10:57:37;;;;;;;1.30;1.17;;;;;;;10.02;91.11;100378.59;4994107;28;20203;-73
2023/12/29 11:00:06;;;;;;;2.27;1.40;;;;;;;10.02;96.04;100375.97;4997303;28;20594;-74
2023/12/29 11:02:33;;;;;;;2.03;1.10;;;;;;;10.00;90.86;100372.88;4994204;28;20665;-73
2023/12/29 11:05:04;;;;;;;1.80;1.70;;;;;;;10.01;93.60;100361.22;4991489;28;20546;-73
2023/12/29 11:07:35;;;;;;;1.53;1.10;;;;;;;10.01;91.77;100359.38;4992964;28;20401;-74
2023/12/29 11:10:03;;;;;;;1.53;1.37;;;;;;;10.01;91.32;100354.09;4991753;28;20233;-73
2023/12/29 11:12:31;;;;;;;1.60;1.13;;;;;;;10.02;93.67;100365.41;4990676;28;20209;-73
2023/12/29 11:14:59;;;;;;;2.30;1.40;;;;;;;10.04;93.14;100364.00;4992387;28;20676;-73
2023/12/29 11:17:27;;;;;;;5.27;1.60;;;;;;;10.08;92.02;100379.97;4997771;28;20292;-74
2023/12/29 11:19:53;;;;;;;1.60;1.40;;;;;;;10.10;92.67;100380.41;4990622;28;20222;-73
2023/12/29 11:22:22;;;;;;;1.30;1.07;;;;;;;10.13;91.21;100371.84;4990756;28;20195;-73
2023/12/29 11:24:48;;;;;;;1.33;1.23;;;;;;;10.16;91.58;100365.91;4992588;28;20219;-73
2023/12/29 11:27:15;;;;;;;1.30;1.20;;;;;;;10.16;91.25;100369.34;4992846;28;20224;-72